Time;durP1;ratioP1;P1;durP2;ratioP2;P2;SDS_P1;SDS_P2;PMS_P1;PMS_P2;Temp;Humidity;BMP_temperature;BMP_pressure;BME280_temperature;BME280_humidity;BME280_pressure;Samples;Min_cycle;Max_cycle;Signal;HPM_P1;HPM_P2
2022/03/10 00:00:27;;;;;;;23.03;12.47;;;;;;;0.73;65.84;100027.56;2170273;81;20898;-81
2022/03/10 00:03:29;;;;;;;21.70;13.87;;;;;;;0.72;65.80;100036.06;2163041;82;20985;-81
2022/03/10 00:06:30;;;;;;;60.23;31.47;;;;;;;0.72;65.75;100029.64;2170445;81;20921;-82
2022/03/10 00:09:30;;;;;;;21.67;12.67;;;;;;;0.69;65.44;100026.85;2172676;81;20973;-83
2022/03/10 00:12:31;;;;;;;17.60;11.70;;;;;;;0.61;65.04;100028.89;2170157;81;20938;-81
2022/03/10 00:15:31;;;;;;;40.97;17.80;;;;;;;0.56;65.34;100040.53;2171538;81;21384;-81
2022/03/10 00:18:32;;;;;;;42.73;18.83;;;;;;;0.55;65.58;100044.77;2172667;81;20972;-82
2022/03/10 00:21:32;;;;;;;20.33;11.13;;;;;;;0.53;65.00;100048.02;2171594;81;20930;-81
2022/03/10 00:24:33;;;;;;;14.37;9.83;;;;;;;3.89;90.56;100036.98;2171580;81;20969;-81
2022/03/10 00:27:34;;;;;;;17.80;10.90;;;;;;;7.25;74.41;100027.39;2171558;81;20941;-81
2022/03/10 00:30:34;;;;;;;12.13;8.73;;;;;;;9.43;71.36;100025.28;2170951;81;20992;-81
2022/03/10 00:33:35;;;;;;;10.57;7.80;;;;;;;11.02;58.16;100019.59;2170272;81;21277;-82
2022/03/10 00:36:35;;;;;;;25.30;13.93;;;;;;;8.70;48.72;100031.72;2170422;82;21315;-81
2022/03/10 00:39:36;;;;;;;9.03;6.97;;;;;;;6.18;49.75;100044.50;2171273;81;20996;-82
2022/03/10 00:42:36;;;;;;;10.53;7.70;;;;;;;4.68;50.55;100051.77;2171331;81;20957;-82
2022/03/10 00:45:37;;;;;;;16.57;9.87;;;;;;;3.62;53.19;100062.99;2171476;82;20925;-82
2022/03/10 00:48:37;;;;;;;30.00;9.13;;;;;;;2.91;54.32;100066.39;2171689;81;20957;-83
2022/03/10 00:51:38;;;;;;;19.17;8.27;;;;;;;2.45;55.08;100064.40;2170554;82;20933;-80
2022/03/10 00:54:38;;;;;;;23.17;13.03;;;;;;;2.15;56.10;100070.18;2170065;82;20968;-81
2022/03/10 00:57:39;;;;;;;15.83;9.83;;;;;;;1.93;56.84;100074.73;2169948;81;20985;-80
2022/03/10 01:00:39;;;;;;;10.03;7.10;;;;;;;1.82;57.26;100077.90;2172826;82;20925;-80
2022/03/10 01:03:40;;;;;;;6.23;4.93;;;;;;;1.66;56.90;100073.78;2171889;82;20968;-81
2022/03/10 01:06:40;;;;;;;5.70;4.50;;;;;;;1.46;57.09;100076.31;2171351;82;20933;-80
2022/03/10 01:09:41;;;;;;;7.73;4.87;;;;;;;1.19;57.39;100080.09;2172460;81;21008;-81
2022/03/10 01:12:44;;;;;;;5.97;4.83;;;;;;;0.99;57.58;100080.41;2173012;81;20921;-81
2022/03/10 01:15:46;;;;;;;8.03;6.00;;;;;;;0.79;58.06;100080.68;2127913;84;21052;-80
2022/03/10 01:18:46;;;;;;;9.00;4.77;;;;;;;0.59;58.55;100083.14;2128598;84;20992;-81
2022/03/10 01:21:47;;;;;;;8.87;5.80;;;;;;;0.40;58.86;100087.76;2128138;84;20980;-81
2022/03/10 01:24:47;;;;;;;5.63;4.10;;;;;;;0.31;59.37;100088.88;2128080;84;21376;-80
2022/03/10 01:27:48;;;;;;;6.47;4.20;;;;;;;0.24;59.70;100094.36;2128202;84;21374;-82
2022/03/10 01:30:49;;;;;;;4.90;3.73;;;;;;;0.21;60.03;100097.10;2128151;84;21000;-80
2022/03/10 01:33:49;;;;;;;7.63;3.90;;;;;;;0.22;60.20;100097.60;2128044;84;20909;-80
2022/03/10 01:36:50;;;;;;;5.67;4.17;;;;;;;0.24;60.09;100104.64;2127780;84;20937;-80
2022/03/10 01:39:50;;;;;;;5.13;3.97;;;;;;;0.22;60.16;100101.06;2127923;84;20937;-80
2022/03/10 01:42:52;;;;;;;6.90;4.17;;;;;;;0.25;60.38;100102.96;2127949;84;20937;-80
2022/03/10 01:45:53;;;;;;;5.60;4.20;;;;;;;0.30;60.58;100106.75;2127906;84;20940;-80
2022/03/10 01:48:54;;;;;;;6.13;3.63;;;;;;;0.36;60.43;100105.91;2128018;84;20933;-80
2022/03/10 01:51:55;;;;;;;6.23;4.47;;;;;;;0.41;60.40;100107.52;2127927;83;20964;-80
2022/03/10 01:54:56;;;;;;;7.50;4.47;;;;;;;0.42;60.51;100109.30;2127925;84;20956;-80
2022/03/10 01:57:57;;;;;;;10.60;5.23;;;;;;;0.46;60.79;100108.74;2127945;83;20984;-80
2022/03/10 02:00:58;;;;;;;72.37;7.93;;;;;;;0.50;60.65;100107.78;2127546;83;20964;-80
2022/03/10 02:03:59;;;;;;;6.63;4.70;;;;;;;0.53;60.73;100114.42;2128038;84;21323;-80
2022/03/10 02:07:00;;;;;;;6.53;4.47;;;;;;;0.58;60.85;100116.93;2128052;83;20992;-80
2022/03/10 02:10:18;;;;;;;8.00;5.10;;;;;;;0.58;60.50;100124.64;2128551;83;21331;-80
2022/03/10 02:13:19;;;;;;;6.97;5.33;;;;;;;0.56;60.82;100124.92;2128432;84;20948;-81
2022/03/10 02:19:38;;;;;;;16.87;8.43;;;;;;;0.50;60.93;100118.06;2128242;84;21384;-81
2022/03/10 02:22:39;;;;;;;24.97;11.37;;;;;;;0.46;60.99;100126.34;2127890;84;20913;-81
2022/03/10 02:25:40;;;;;;;30.83;12.93;;;;;;;0.39;61.07;100129.25;2114940;84;21029;-81
2022/03/10 02:28:40;;;;;;;22.43;10.23;;;;;;;0.28;61.22;100141.31;2172469;81;21032;-81
2022/03/10 02:31:40;;;;;;;15.40;7.43;;;;;;;0.16;61.53;100144.66;2171743;81;20913;-81
2022/03/10 02:34:41;;;;;;;9.30;6.00;;;;;;;0.06;61.61;100150.80;2172238;81;20917;-81
2022/03/10 02:37:42;;;;;;;8.60;5.17;;;;;;;-0.09;61.76;100149.24;2172337;82;20910;-81
2022/03/10 02:40:43;;;;;;;6.60;5.20;;;;;;;-0.19;61.92;100154.86;2172861;81;21320;-81
2022/03/10 02:43:43;;;;;;;6.67;4.90;;;;;;;-0.34;61.99;100155.50;2171778;81;20917;-82
2022/03/10 02:46:43;;;;;;;14.20;5.50;;;;;;;-0.46;62.57;100159.70;2170097;81;20940;-81
2022/03/10 02:49:44;;;;;;;8.30;5.10;;;;;;;-0.57;62.82;100171.21;2170036;81;20973;-81
2022/03/10 02:52:44;;;;;;;8.83;6.20;;;;;;;-0.69;62.88;100172.45;2171998;81;20941;-80
2022/03/10 02:55:45;;;;;;;7.93;6.13;;;;;;;-0.75;63.51;100172.87;2172496;81;20929;-81
2022/03/10 02:58:45;;;;;;;11.50;6.63;;;;;;;-0.80;63.74;100169.45;2171252;81;21036;-82
2022/03/10 03:01:46;;;;;;;50.13;10.73;;;;;;;-0.84;64.16;100176.01;2172779;81;21022;-82
2022/03/10 03:04:47;;;;;;;77.17;12.33;;;;;;;-0.83;64.53;100180.75;2170500;82;20949;-81
2022/03/10 03:07:48;;;;;;;20.07;9.97;;;;;;;-0.83;64.96;100175.23;2171333;81;20921;-82
2022/03/10 03:10:48;;;;;;;14.67;8.87;;;;;;;-0.84;65.36;100191.78;2171154;82;20933;-81
2022/03/10 03:13:49;;;;;;;21.33;11.90;;;;;;;-0.91;65.28;100190.38;2169914;81;20976;-81
2022/03/10 03:16:50;;;;;;;19.30;9.63;;;;;;;-0.91;65.67;100188.20;2170095;81;20926;-81
2022/03/10 03:19:50;;;;;;;41.40;14.87;;;;;;;-0.93;66.07;100198.33;2170004;82;20957;-82
2022/03/10 03:22:50;;;;;;;108.37;19.77;;;;;;;-0.99;65.97;100200.02;2170823;81;21289;-81
2022/03/10 03:25:51;;;;;;;16.50;9.77;;;;;;;-1.03;66.48;100203.13;2170146;81;21020;-81
2022/03/10 03:28:52;;;;;;;27.53;13.03;;;;;;;-1.08;66.61;100208.66;2170725;82;20953;-81
2022/03/10 03:31:52;;;;;;;31.13;15.40;;;;;;;-1.19;66.31;100213.33;2171423;81;20928;-82
2022/03/10 03:34:53;;;;;;;21.03;12.17;;;;;;;-1.30;66.48;100219.77;2171225;81;20961;-82
2022/03/10 03:37:53;;;;;;;23.60;12.27;;;;;;;-1.34;66.85;100224.14;2171614;81;21308;-82
2022/03/10 03:40:54;;;;;;;20.57;11.00;;;;;;;-1.39;66.51;100228.38;2172299;81;21352;-81
2022/03/10 03:43:54;;;;;;;17.07;10.57;;;;;;;-1.44;66.90;100236.08;2169658;81;21019;-81
2022/03/10 03:46:54;;;;;;;19.90;11.00;;;;;;;-1.53;66.69;100240.08;2172354;81;20933;-81
2022/03/10 03:49:55;;;;;;;15.83;9.93;;;;;;;-1.58;67.10;100242.65;2171121;81;21012;-82
2022/03/10 03:52:55;;;;;;;55.67;12.00;;;;;;;-1.59;67.20;100249.81;2170733;82;20932;-82
2022/03/10 03:55:56;;;;;;;17.03;10.00;;;;;;;-1.56;67.14;100250.06;2171984;81;21313;-82
2022/03/10 03:58:56;;;;;;;17.10;11.13;;;;;;;-1.57;67.33;100264.92;2171123;81;21439;-82
2022/03/10 04:01:57;;;;;;;18.40;11.03;;;;;;;-1.61;67.22;100267.62;2171115;81;20933;-82
2022/03/10 04:04:57;;;;;;;24.40;12.87;;;;;;;-1.65;67.30;100274.92;2170997;81;20906;-82
2022/03/10 04:07:58;;;;;;;16.87;9.87;;;;;;;-1.66;67.42;100271.85;2170671;81;20945;-82
2022/03/10 04:10:58;;;;;;;14.57;9.80;;;;;;;-1.65;67.64;100274.92;2170848;81;20941;-82
2022/03/10 04:13:59;;;;;;;24.87;13.30;;;;;;;-1.70;67.50;100288.63;2170510;81;20977;-82
2022/03/10 04:16:59;;;;;;;13.90;10.30;;;;;;;-1.76;67.52;100284.24;2170325;81;20925;-82
2022/03/10 04:20:00;;;;;;;17.60;11.20;;;;;;;-1.82;67.61;100293.08;2171323;81;21297;-82
2022/03/10 04:23:00;;;;;;;66.27;15.73;;;;;;;-1.81;67.75;100290.65;2169973;82;21336;-81
2022/03/10 04:26:01;;;;;;;28.70;12.50;;;;;;;-1.81;67.85;100297.43;2170564;81;21339;-81
2022/03/10 04:29:01;;;;;;;18.10;11.27;;;;;;;-1.83;67.74;100306.65;2169997;81;21462;-81
2022/03/10 04:32:02;;;;;;;44.13;11.93;;;;;;;-1.86;67.99;100312.79;2169313;81;20969;-80
2022/03/10 04:35:02;;;;;;;17.30;11.23;;;;;;;-1.90;67.94;100310.36;2170073;81;20941;-81
2022/03/10 04:38:03;;;;;;;16.53;10.83;;;;;;;-1.96;67.89;100320.98;2169630;81;21269;-81
2022/03/10 04:41:03;;;;;;;19.23;11.90;;;;;;;-2.00;68.14;100316.75;2169024;81;21000;-81
2022/03/10 04:44:04;;;;;;;18.57;11.83;;;;;;;-2.05;68.04;100321.87;2168587;81;20976;-81
2022/03/10 04:47:05;;;;;;;24.13;13.30;;;;;;;-2.09;68.11;100327.48;2168491;81;21320;-81
2022/03/10 04:50:06;;;;;;;28.80;13.93;;;;;;;-2.15;68.06;100326.59;2157042;82;21761;-82
2022/03/10 04:53:06;;;;;;;22.07;12.17;;;;;;;-2.19;68.06;100329.66;2169837;81;21024;-82
2022/03/10 04:56:07;;;;;;;21.83;12.73;;;;;;;-2.23;67.95;100333.09;2169045;81;21391;-82
2022/03/10 04:59:07;;;;;;;22.07;12.23;;;;;;;-2.25;68.08;100342.81;2168448;81;21079;-82
2022/03/10 05:02:08;;;;;;;22.33;12.90;;;;;;;-2.29;68.10;100348.81;2168178;81;21016;-82
2022/03/10 05:05:08;;;;;;;29.70;15.07;;;;;;;-2.30;68.29;100353.42;2169122;81;21222;-82
2022/03/10 05:08:09;;;;;;;20.77;13.17;;;;;;;-2.34;68.31;100348.80;2168046;81;20933;-82
2022/03/10 05:11:09;;;;;;;30.27;12.33;;;;;;;-2.36;68.18;100357.62;2170536;81;20980;-82
2022/03/10 05:14:10;;;;;;;19.33;12.27;;;;;;;-2.36;68.41;100364.02;2168871;81;20984;-83
2022/03/10 05:17:10;;;;;;;25.60;14.00;;;;;;;-2.38;68.37;100373.59;2169506;81;21423;-82
2022/03/10 05:20:11;;;;;;;49.37;14.47;;;;;;;-2.40;68.34;100371.30;2169052;81;21297;-81
2022/03/10 05:23:11;;;;;;;25.23;13.63;;;;;;;-2.42;68.28;100377.94;2168919;81;20988;-82
2022/03/10 05:26:12;;;;;;;34.13;13.87;;;;;;;-2.44;68.15;100379.08;2169678;81;20996;-82
2022/03/10 05:29:12;;;;;;;21.57;12.43;;;;;;;-2.42;68.10;100384.33;2168219;82;21467;-82
2022/03/10 05:32:16;;;;;;;34.47;15.50;;;;;;;-2.41;67.88;100391.23;2169105;81;21004;-79
2022/03/10 05:35:15;;;;;;;22.63;13.87;;;;;;;-2.41;67.75;100390.86;2168289;81;21019;-82
2022/03/10 05:38:16;;;;;;;22.83;13.10;;;;;;;-2.34;67.72;100399.95;2168715;81;20949;-82
2022/03/10 05:41:16;;;;;;;21.03;12.57;;;;;;;-2.31;67.62;100396.00;2167810;81;21004;-81
2022/03/10 05:44:17;;;;;;;20.83;12.90;;;;;;;-2.32;67.30;100404.44;2167870;81;21472;-81
2022/03/10 05:47:17;;;;;;;20.40;12.63;;;;;;;-2.29;67.20;100403.42;2167702;81;21388;-80
2022/03/10 05:50:18;;;;;;;25.43;15.90;;;;;;;-2.26;67.16;100407.53;2168986;81;21000;-82
2022/03/10 05:53:21;;;;;;;24.30;11.83;;;;;;;-2.17;67.06;100408.70;2169369;81;20995;-80
2022/03/10 05:56:22;;;;;;;36.30;12.57;;;;;;;-2.01;66.87;100416.03;2168616;81;21477;-82
2022/03/10 05:59:22;;;;;;;18.87;11.23;;;;;;;-1.89;66.60;100413.63;2166460;81;21044;-81
2022/03/10 06:02:23;;;;;;;14.50;10.13;;;;;;;-1.73;65.95;100425.34;2166504;81;20992;-82
2022/03/10 06:05:23;;;;;;;81.53;13.77;;;;;;;-1.58;65.58;100426.12;2168623;82;21403;-83
2022/03/10 06:08:25;;;;;;;19.40;11.37;;;;;;;-1.48;65.19;100429.58;2168288;81;21463;-81
2022/03/10 06:11:26;;;;;;;15.37;10.80;;;;;;;-1.31;65.24;100433.17;2168729;81;20971;-81
2022/03/10 06:14:26;;;;;;;18.17;10.63;;;;;;;-1.14;64.68;100437.13;2167904;81;21402;-81
2022/03/10 06:17:27;;;;;;;21.40;11.90;;;;;;;-0.98;64.35;100441.85;2169815;81;21050;-80
2022/03/10 06:20:30;;;;;;;20.60;10.83;;;;;;;-0.96;63.43;100449.28;2170700;81;21027;-81
2022/03/10 06:23:29;;;;;;;19.43;9.97;;;;;;;-0.92;63.22;100457.73;2167680;81;21036;-82
2022/03/10 06:26:30;;;;;;;16.90;10.77;;;;;;;-0.85;62.35;100457.89;2167738;81;21027;-81
2022/03/10 06:29:31;;;;;;;15.67;10.50;;;;;;;-0.78;61.88;100462.75;2170200;81;21450;-81
2022/03/10 06:32:31;;;;;;;13.87;9.43;;;;;;;-0.69;61.05;100469.91;2169912;82;20976;-80
2022/03/10 06:35:32;;;;;;;16.73;9.93;;;;;;;-0.61;61.17;100473.09;2167931;82;21701;-80
2022/03/10 06:38:36;;;;;;;19.17;10.80;;;;;;;-0.50;61.38;100471.91;2167195;82;21181;-81
2022/03/10 06:41:37;;;;;;;1189.05;103.60;;;;;;;-0.37;59.55;100477.65;2167804;81;20965;-81
2022/03/10 06:44:37;;;;;;;34.17;10.47;;;;;;;-0.39;58.57;100484.33;2167386;81;20976;-83
2022/03/10 06:47:38;;;;;;;91.47;11.57;;;;;;;-0.40;58.85;100491.13;2169255;81;20973;-82
2022/03/10 06:50:38;;;;;;;13.70;9.20;;;;;;;-0.38;57.23;100489.58;2168101;82;20996;-81
2022/03/10 06:53:39;;;;;;;9.60;7.07;;;;;;;-0.39;57.91;100498.05;2167188;81;21344;-81
2022/03/10 06:56:40;;;;;;;11.53;7.10;;;;;;;-0.38;55.13;100504.08;2167220;81;20961;-81
2022/03/10 06:59:40;;;;;;;10.27;6.53;;;;;;;-0.40;55.74;100506.91;2167561;81;21036;-81
2022/03/10 07:02:40;;;;;;;10.57;6.20;;;;;;;-0.28;55.67;100509.18;2168755;81;20964;-81
2022/03/10 07:05:41;;;;;;;10.43;6.20;;;;;;;-0.15;55.12;100508.49;2168964;82;21454;-81
2022/03/10 07:08:41;;;;;;;10.33;6.73;;;;;;;0.00;54.32;100514.89;2169776;81;20992;-81
2022/03/10 07:11:42;;;;;;;26.60;7.73;;;;;;;0.07;53.38;100521.41;2168890;81;20964;-81
2022/03/10 07:14:42;;;;;;;15.00;7.53;;;;;;;0.15;53.34;100522.52;2171025;82;20985;-82
2022/03/10 07:17:43;;;;;;;11.23;6.07;;;;;;;0.18;53.67;100523.16;2170793;81;20972;-80
2022/03/10 07:20:43;;;;;;;43.73;8.83;;;;;;;0.24;52.58;100524.92;2170990;81;20984;-81
2022/03/10 07:23:44;;;;;;;9.07;6.67;;;;;;;0.32;51.72;100527.70;2169718;81;20964;-81
2022/03/10 07:26:44;;;;;;;10.90;6.33;;;;;;;0.42;51.50;100522.52;2168513;81;20972;-81
2022/03/10 07:29:45;;;;;;;40.57;16.37;;;;;;;0.59;51.95;100526.00;2168856;82;21000;-81
2022/03/10 07:32:45;;;;;;;11.10;6.07;;;;;;;0.64;51.57;100527.26;2168130;81;20984;-81
2022/03/10 07:35:46;;;;;;;8.17;6.00;;;;;;;0.74;50.82;100531.82;2169645;81;21035;-83
2022/03/10 07:38:46;;;;;;;26.83;7.03;;;;;;;0.79;50.36;100531.40;2170146;81;20983;-84
2022/03/10 07:41:47;;;;;;;8.47;5.10;;;;;;;0.72;47.46;100535.56;2169589;82;21515;-82
2022/03/10 07:44:47;;;;;;;6.77;5.23;;;;;;;0.78;49.35;100536.42;2169887;81;21105;-82
2022/03/10 07:47:48;;;;;;;7.40;5.53;;;;;;;0.94;47.86;100531.31;2170669;81;20972;-81
2022/03/10 07:50:48;;;;;;;8.73;5.43;;;;;;;1.02;48.93;100530.61;2169252;81;20973;-82
2022/03/10 07:53:49;;;;;;;8.00;5.40;;;;;;;1.24;48.37;100538.28;2169919;81;21246;-82
2022/03/10 07:56:50;;;;;;;10.30;5.03;;;;;;;1.21;46.98;100540.62;2168893;82;20985;-83
2022/03/10 07:59:51;;;;;;;9.67;4.63;;;;;;;1.26;44.53;100531.18;2171286;81;21011;-82
2022/03/10 08:02:52;;;;;;;7.83;4.50;;;;;;;1.33;44.86;100545.79;2170441;81;21020;-82
2022/03/10 08:05:53;;;;;;;163.67;15.33;;;;;;;1.21;43.81;100544.48;2168573;82;20996;-81
2022/03/10 08:08:53;;;;;;;13.70;5.17;;;;;;;1.28;45.25;100548.02;2169116;81;21052;-82
2022/03/10 08:11:54;;;;;;;6.27;4.40;;;;;;;1.42;43.31;100554.20;2168046;82;21004;-81
2022/03/10 08:14:54;;;;;;;12.63;5.03;;;;;;;1.38;44.63;100555.64;2168341;82;20937;-81
2022/03/10 08:17:55;;;;;;;44.03;6.10;;;;;;;1.45;44.67;100552.75;2168962;81;20959;-81
2022/03/10 08:20:55;;;;;;;33.70;6.67;;;;;;;1.52;43.09;100557.57;2168659;81;20971;-80
2022/03/10 08:23:56;;;;;;;9.40;4.73;;;;;;;1.52;43.62;100554.10;2169514;82;21335;-81
2022/03/10 08:26:58;;;;;;;7.80;5.50;;;;;;;1.63;41.78;100554.50;2169371;82;21590;-81
2022/03/10 08:29:58;;;;;;;11.83;4.70;;;;;;;1.73;42.96;100551.83;2169488;82;21048;-82
2022/03/10 08:32:59;;;;;;;8.13;4.73;;;;;;;1.84;41.50;100546.21;2169008;82;20980;-82
2022/03/10 08:36:00;;;;;;;26.27;12.80;;;;;;;1.90;43.51;100545.37;2169155;82;21371;-81
2022/03/10 08:39:00;;;;;;;27.17;7.50;;;;;;;2.04;42.27;100539.94;2168875;81;21004;-80
2022/03/10 08:42:01;;;;;;;26.37;6.77;;;;;;;2.27;43.07;100536.03;2168062;82;20995;-82
2022/03/10 08:45:01;;;;;;;7.83;5.27;;;;;;;2.30;42.69;100545.27;2169561;82;21003;-82
2022/03/10 08:48:02;;;;;;;11.80;5.87;;;;;;;2.39;41.98;100536.01;2169537;82;20984;-85
2022/03/10 08:51:02;;;;;;;14.43;5.47;;;;;;;4.94;59.35;100522.82;2169090;81;21419;-85
2022/03/10 08:54:03;;;;;;;17.20;7.97;;;;;;;9.50;51.57;100509.48;2169425;82;20988;-85
2022/03/10 08:57:05;;;;;;;10.20;4.53;;;;;;;11.38;45.57;100513.88;2160678;82;21063;-85
2022/03/10 09:00:06;;;;;;;6.60;4.83;;;;;;;12.32;39.66;100503.11;2103095;83;20996;-84
2022/03/10 09:03:06;;;;;;;7.17;4.17;;;;;;;12.36;30.14;100510.22;2125522;84;21401;-83
2022/03/10 09:06:10;;;;;;;12.03;5.40;;;;;;;9.38;30.09;100511.98;2127042;83;20980;-82
2022/03/10 09:09:10;;;;;;;7.03;4.40;;;;;;;6.97;30.50;100521.13;2170719;81;21056;-82
2022/03/10 09:12:10;;;;;;;7.73;4.73;;;;;;;5.70;32.58;100530.87;2171144;82;20999;-83
2022/03/10 09:15:11;;;;;;;8.63;4.63;;;;;;;4.73;32.12;100533.65;2171251;82;21310;-83
2022/03/10 09:18:12;;;;;;;6.63;4.50;;;;;;;4.10;33.20;100533.05;2169453;81;21208;-83
2022/03/10 09:21:13;;;;;;;12.40;6.93;;;;;;;3.80;32.99;100533.26;2169274;82;21395;-83
2022/03/10 09:24:13;;;;;;;8.00;4.90;;;;;;;3.60;33.71;100526.79;2170138;81;20945;-82
2022/03/10 09:27:14;;;;;;;6.00;4.43;;;;;;;3.56;34.42;100532.94;2169174;81;21035;-82
2022/03/10 09:30:14;;;;;;;7.57;4.50;;;;;;;3.44;33.15;100516.20;2170683;82;21747;-83
2022/03/10 09:33:15;;;;;;;6.80;4.83;;;;;;;3.44;34.26;100539.44;2170760;81;21012;-83
2022/03/10 09:36:16;;;;;;;11.67;5.43;;;;;;;3.40;34.79;100537.45;2170475;81;20958;-81
2022/03/10 09:39:18;;;;;;;8.83;5.43;;;;;;;3.43;34.48;100532.48;2170784;82;20984;-81
2022/03/10 09:42:18;;;;;;;6.53;4.73;;;;;;;3.35;33.54;100541.41;2125880;83;21122;-82
2022/03/10 09:45:19;;;;;;;10.67;5.47;;;;;;;3.31;35.05;100545.86;2127156;83;20999;-84
2022/03/10 09:48:22;;;;;;;8.30;5.93;;;;;;;3.28;34.12;100548.23;2126187;84;21124;-82
2022/03/10 09:51:23;;;;;;;7.03;5.87;;;;;;;3.34;34.22;100548.25;2126364;83;21035;-83
2022/03/10 09:54:23;;;;;;;67.73;27.10;;;;;;;3.24;34.40;100543.66;2126435;84;21003;-82
2022/03/10 09:57:25;;;;;;;70.30;13.20;;;;;;;3.33;35.42;100540.41;2171744;81;20985;-80
2022/03/10 10:00:27;;;;;;;12.43;7.80;;;;;;;3.43;35.27;100539.84;2170046;81;21167;-78
2022/03/10 10:03:27;;;;;;;19.27;5.43;;;;;;;3.39;33.22;100544.69;2168400;82;21011;-82
2022/03/10 10:06:28;;;;;;;9.07;4.43;;;;;;;3.22;33.41;100538.79;2170710;82;21007;-83
2022/03/10 10:09:30;;;;;;;6.73;5.17;;;;;;;3.19;33.60;100537.80;2171824;81;20988;-84
2022/03/10 10:12:30;;;;;;;18.60;10.20;;;;;;;3.13;33.95;100550.28;2168362;82;21646;-83
2022/03/10 10:15:31;;;;;;;20.13;6.27;;;;;;;3.25;34.77;100551.91;2168450;81;20968;-84
2022/03/10 10:18:31;;;;;;;7.23;5.43;;;;;;;3.29;33.45;100547.05;2167476;81;20973;-82
2022/03/10 10:21:32;;;;;;;9.13;6.50;;;;;;;3.33;34.02;100550.73;2168205;82;21036;-83
2022/03/10 10:24:32;;;;;;;15.80;5.90;;;;;;;3.44;33.99;100560.09;2169353;81;20976;-81
2022/03/10 10:27:33;;;;;;;13.40;5.53;;;;;;;3.57;33.76;100554.98;2167676;82;21024;-83
2022/03/10 10:30:33;;;;;;;11.40;5.80;;;;;;;3.49;32.29;100566.49;2159422;82;21047;-83
2022/03/10 10:33:34;;;;;;;8.67;5.13;;;;;;;3.47;34.03;100562.91;2171280;82;20995;-82
2022/03/10 10:36:37;;;;;;;6.97;4.77;;;;;;;3.54;33.24;100562.92;2171863;82;20910;-82
2022/03/10 10:39:37;;;;;;;45.97;15.80;;;;;;;3.56;33.44;100557.08;2126845;83;21018;-82
2022/03/10 10:42:37;;;;;;;18.73;6.27;;;;;;;3.58;32.84;100552.91;2110167;84;20993;-81
2022/03/10 10:45:41;;;;;;;8.13;5.00;;;;;;;3.73;33.00;100565.54;2120152;84;20969;-81
2022/03/10 10:48:41;;;;;;;6.67;4.73;;;;;;;3.82;32.65;100554.92;2119835;84;21389;-82
2022/03/10 10:51:42;;;;;;;11.10;6.30;;;;;;;3.80;32.54;100559.09;2119023;84;21009;-81
2022/03/10 10:54:43;;;;;;;76.53;12.00;;;;;;;3.77;32.51;100554.61;2111055;84;21029;-81
2022/03/10 10:57:43;;;;;;;29.73;10.17;;;;;;;3.88;33.17;100557.00;2108452;84;20989;-82
2022/03/10 11:00:44;;;;;;;17.10;8.40;;;;;;;3.88;32.19;100563.47;2108062;84;21061;-82
2022/03/10 11:03:46;;;;;;;6.97;4.97;;;;;;;3.96;32.21;100559.30;2170768;81;21475;-81
2022/03/10 11:06:46;;;;;;;10.10;6.47;;;;;;;3.73;31.02;100553.92;2172513;81;20972;-82
2022/03/10 11:09:47;;;;;;;8.87;5.37;;;;;;;3.70;32.70;100560.57;2170159;81;21024;-80
2022/03/10 11:12:47;;;;;;;7.17;4.83;;;;;;;3.76;32.73;100563.16;2170773;82;20973;-82
2022/03/10 11:15:48;;;;;;;11.33;5.30;;;;;;;3.81;32.64;100559.19;2168563;82;20988;-83
2022/03/10 11:18:49;;;;;;;8.67;4.90;;;;;;;3.95;32.14;100565.66;2168898;82;20942;-86
2022/03/10 11:21:50;;;;;;;195.57;13.93;;;;;;;3.98;31.25;100567.14;2169134;82;20975;-82
2022/03/10 11:24:50;;;;;;;46.90;7.03;;;;;;;4.23;35.46;100557.59;2170085;81;21220;-81
2022/03/10 11:27:51;;;;;;;38.83;7.50;;;;;;;4.67;32.30;100563.41;2169881;81;21007;-81
2022/03/10 11:30:51;;;;;;;8.43;4.50;;;;;;;5.78;34.04;100553.34;2166559;81;21111;-81
2022/03/10 11:33:52;;;;;;;23.57;14.63;;;;;;;5.82;31.38;100547.92;2168301;82;20937;-81
2022/03/10 11:36:52;;;;;;;7.43;6.00;;;;;;;5.43;31.44;100553.87;2169189;81;20980;-81
2022/03/10 11:39:53;;;;;;;33.13;8.50;;;;;;;5.21;32.06;100559.86;2169370;81;21375;-81
2022/03/10 11:42:54;;;;;;;8.23;5.43;;;;;;;5.07;31.27;100557.30;2171278;82;21339;-82
2022/03/10 11:48:56;;;;;;;32.47;13.07;;;;;;;4.58;31.82;100554.69;2158779;82;21024;-80
2022/03/10 11:51:59;;;;;;;15.20;5.80;;;;;;;4.41;32.00;100564.37;2170173;81;20941;-82
2022/03/10 11:54:59;;;;;;;10.83;5.63;;;;;;;4.18;30.85;100577.48;2167447;82;21008;-82
2022/03/10 11:58:04;;;;;;;6.90;5.33;;;;;;;3.98;31.61;100565.45;2169202;81;20999;-83
2022/03/10 12:01:02;;;;;;;20.53;7.33;;;;;;;3.94;31.79;100564.76;2126085;83;21035;-81
2022/03/10 12:04:03;;;;;;;80.57;33.67;;;;;;;3.92;32.24;100557.31;2126150;83;21024;-80
2022/03/10 12:07:03;;;;;;;16.27;8.73;;;;;;;3.93;31.58;100558.20;2111724;84;21012;-84
2022/03/10 12:10:04;;;;;;;10.90;5.17;;;;;;;3.91;32.16;100549.45;2171262;81;21072;-82
2022/03/10 12:13:04;;;;;;;8.67;5.00;;;;;;;4.06;32.53;100560.78;2170699;81;20957;-82
2022/03/10 12:16:05;;;;;;;7.73;5.23;;;;;;;4.08;32.38;100561.38;2168261;81;21012;-83
2022/03/10 12:19:05;;;;;;;46.50;17.60;;;;;;;4.12;32.62;100558.59;2169478;82;20996;-81
2022/03/10 12:22:08;;;;;;;6.67;5.00;;;;;;;4.19;31.89;100560.78;2171624;81;21035;-81
2022/03/10 12:25:09;;;;;;;36.30;15.77;;;;;;;4.05;31.07;100557.31;2123784;84;21019;-82
2022/03/10 12:28:09;;;;;;;19.30;6.37;;;;;;;3.91;31.42;100565.85;2170165;81;21164;-83
2022/03/10 12:31:10;;;;;;;7.53;4.53;;;;;;;3.96;31.38;100563.57;2170223;81;21048;-82
2022/03/10 12:34:12;;;;;;;14.70;4.57;;;;;;;3.96;31.92;100561.88;2169659;81;20946;-83
2022/03/10 12:37:13;;;;;;;24.83;6.23;;;;;;;4.12;32.43;100559.89;2168231;81;21413;-79
2022/03/10 12:40:13;;;;;;;15.70;5.60;;;;;;;4.19;30.71;100559.48;2167892;81;21012;-83
2022/03/10 12:43:14;;;;;;;63.20;26.17;;;;;;;4.20;30.93;100564.26;2170258;81;20999;-81
2022/03/10 12:46:14;;;;;;;23.07;10.30;;;;;;;4.15;31.42;100550.64;2171231;81;20965;-82
2022/03/10 12:49:15;;;;;;;19.13;9.30;;;;;;;4.04;31.84;100554.22;2170092;81;21129;-80
2022/03/10 12:52:15;;;;;;;6.47;4.80;;;;;;;4.17;32.30;100559.78;2170051;81;20988;-80
2022/03/10 12:55:16;;;;;;;37.83;7.07;;;;;;;4.25;31.52;100545.66;2167902;82;21595;-80
2022/03/10 12:58:16;;;;;;;6.83;4.77;;;;;;;4.20;31.89;100548.75;2168870;82;21024;-80
2022/03/10 13:01:17;;;;;;;7.57;5.23;;;;;;;4.15;31.74;100553.23;2170194;81;21102;-82
2022/03/10 13:04:18;;;;;;;9.57;5.57;;;;;;;4.11;30.99;100548.66;2170274;82;20995;-83
2022/03/10 13:07:18;;;;;;;8.33;6.03;;;;;;;3.95;30.99;100556.22;2168346;81;21784;-82
2022/03/10 13:10:20;;;;;;;24.70;12.70;;;;;;;3.85;31.64;100553.83;2168125;81;20977;-81
2022/03/10 13:13:21;;;;;;;16.37;7.57;;;;;;;3.86;32.06;100553.03;2168121;82;21215;-82
2022/03/10 13:16:22;;;;;;;13.93;6.23;;;;;;;3.81;31.92;100542.40;2168066;81;21396;-81
2022/03/10 13:19:23;;;;;;;13.73;5.53;;;;;;;3.82;32.23;100542.00;2168495;82;20992;-81
2022/03/10 13:22:23;;;;;;;11.87;6.03;;;;;;;3.92;32.67;100542.20;2167611;81;21375;-80
2022/03/10 13:25:24;;;;;;;6.80;4.53;;;;;;;3.99;33.19;100545.28;2167647;81;21381;-81
2022/03/10 13:28:24;;;;;;;8.00;4.97;;;;;;;3.96;32.09;100542.90;2168917;81;21433;-80
2022/03/10 13:31:25;;;;;;;6.43;4.80;;;;;;;3.92;32.35;100547.38;2167914;82;21103;-80
2022/03/10 13:34:25;;;;;;;7.63;5.67;;;;;;;3.97;32.20;100544.29;2167799;82;20974;-81
2022/03/10 13:37:26;;;;;;;14.90;8.40;;;;;;;3.93;32.49;100543.99;2167673;82;20964;-80
2022/03/10 13:40:26;;;;;;;7.67;5.70;;;;;;;4.01;32.10;100536.34;2168471;81;20956;-81
2022/03/10 13:43:28;;;;;;;7.60;5.20;;;;;;;3.91;32.35;100545.58;2168904;81;21036;-79
2022/03/10 13:46:29;;;;;;;10.27;7.23;;;;;;;3.87;32.07;100547.47;2167869;81;21035;-83
2022/03/10 13:49:29;;;;;;;43.57;7.90;;;;;;;3.69;32.32;100540.30;2167943;81;21419;-83
2022/03/10 13:52:30;;;;;;;8.00;6.13;;;;;;;3.63;31.68;100545.47;2167211;82;21051;-81
2022/03/10 13:55:30;;;;;;;16.57;10.97;;;;;;;3.51;32.21;100550.31;2168346;81;21339;-81
2022/03/10 13:58:31;;;;;;;7.27;5.27;;;;;;;3.52;32.45;100542.17;2167029;81;21012;-81
2022/03/10 14:01:31;;;;;;;8.87;5.70;;;;;;;3.56;32.86;100540.69;2168223;81;21044;-81